createdAt,value
2019-06-01T00:00:40.583Z,27.90
2019-06-01T00:03:06.587Z,25.90
2019-06-01T00:05:32.672Z,25.60
2019-06-01T00:07:58.667Z,25.80
2019-06-01T00:10:24.684Z,24.50
2019-06-01T00:12:50.709Z,25.50
2019-06-01T00:15:16.869Z,24.57
2019-06-01T00:17:43.883Z,26.73
2019-06-01T00:20:10.055Z,27.70
2019-06-01T00:22:36.080Z,27.00
2019-06-01T00:25:03.860Z,26.30
2019-06-01T00:27:29.860Z,28.20
2019-06-01T00:29:55.852Z,29.50
2019-06-01T00:32:21.852Z,27.07
2019-06-01T00:34:47.851Z,26.53
2019-06-01T00:37:13.868Z,27.50
2019-06-01T00:39:39.847Z,27.70
2019-06-01T00:42:05.966Z,27.47
2019-06-01T00:44:31.955Z,28.33
2019-06-01T00:46:57.935Z,28.73
2019-06-01T00:49:23.952Z,29.27
2019-06-01T00:51:52.009Z,29.20
2019-06-01T00:54:18.044Z,29.40
2019-06-01T00:56:45.489Z,28.20
2019-06-01T00:59:11.653Z,27.40
2019-06-01T01:01:37.663Z,28.63
2019-06-01T01:04:03.663Z,31.63
2019-06-01T01:06:29.667Z,30.17
2019-06-01T01:08:55.971Z,29.30
2019-06-01T01:11:22.066Z,28.53
2019-06-01T01:13:49.170Z,30.90
2019-06-01T01:16:15.263Z,31.70
2019-06-01T01:18:41.233Z,31.80
2019-06-01T01:21:07.236Z,29.60
2019-06-01T01:23:33.479Z,29.73
2019-06-01T01:25:59.523Z,29.53
2019-06-01T01:28:25.496Z,28.07
2019-06-01T01:31:02.976Z,32.70
2019-06-01T01:33:19.786Z,29.97
2019-06-01T01:35:47.438Z,28.63
2019-06-01T01:38:13.684Z,31.23
2019-06-01T01:40:39.700Z,29.97
2019-06-01T01:43:05.702Z,32.60
2019-06-01T01:45:31.677Z,29.57
2019-06-01T01:47:57.700Z,31.83
2019-06-01T01:50:24.799Z,30.20
2019-06-01T01:52:50.883Z,31.37
2019-06-01T01:55:16.909Z,29.87
2019-06-01T01:57:42.855Z,28.23
2019-06-01T02:00:10.590Z,28.60
2019-06-01T02:02:36.556Z,26.40
2019-06-01T02:05:04.329Z,26.13
2019-06-01T02:07:30.359Z,26.77
2019-06-01T02:09:57.213Z,26.60
2019-06-01T02:12:23.347Z,26.47
2019-06-01T02:14:49.441Z,26.77
2019-06-01T02:17:15.450Z,24.57
2019-06-01T02:19:41.464Z,23.77
2019-06-01T02:22:07.452Z,26.10
2019-06-01T02:24:33.444Z,22.90
2019-06-01T02:26:59.482Z,22.40
2019-06-01T02:29:25.476Z,22.77
2019-06-01T02:31:51.501Z,22.87
2019-06-01T02:34:17.743Z,24.00
2019-06-01T02:36:43.752Z,22.77
2019-06-01T02:39:11.623Z,23.03
2019-06-01T02:41:37.797Z,22.40
2019-06-01T02:44:06.136Z,23.00
2019-06-01T02:46:35.403Z,21.43
2019-06-01T02:48:59.889Z,21.70
2019-06-01T02:51:26.420Z,21.70
2019-06-01T02:53:52.642Z,21.30
2019-06-01T02:56:18.669Z,21.83
2019-06-01T02:58:44.636Z,19.50
2019-06-01T03:01:36.402Z,19.77
2019-06-01T03:04:05.399Z,18.60
2019-06-01T03:06:31.773Z,17.33
2019-06-01T03:08:59.748Z,16.30
2019-06-01T03:11:29.796Z,16.80
2019-06-01T03:13:58.180Z,17.53
2019-06-01T03:16:27.801Z,16.07
2019-06-01T03:18:57.666Z,15.97
2019-06-01T03:21:27.469Z,15.50
2019-06-01T03:23:56.870Z,15.50
2019-06-01T03:26:24.673Z,15.50
2019-06-01T03:28:51.073Z,15.97
2019-06-01T03:31:17.086Z,15.30
2019-06-01T03:33:43.071Z,14.50
2019-06-01T03:36:09.181Z,13.20
2019-06-01T03:38:35.171Z,12.63
2019-06-01T03:41:02.073Z,13.83
2019-06-01T03:43:28.176Z,12.47
2019-06-01T03:45:54.201Z,12.70
2019-06-01T03:48:20.224Z,11.80
2019-06-01T03:50:46.202Z,12.47
2019-06-01T03:53:12.276Z,10.77
2019-06-01T03:55:38.377Z,12.03
2019-06-01T03:58:04.999Z,10.23
2019-06-01T04:00:31.171Z,9.37
2019-06-01T04:02:57.150Z,10.23
2019-06-01T04:05:23.185Z,9.47
2019-06-01T04:07:49.166Z,9.30
2019-06-01T04:10:15.201Z,8.73
2019-06-01T04:12:41.201Z,8.70
2019-06-01T04:15:11.597Z,11.07
2019-06-01T04:17:35.278Z,9.10
2019-06-01T04:20:02.072Z,8.90
2019-06-01T04:22:28.118Z,8.57
2019-06-01T04:24:54.102Z,7.20
2019-06-01T04:27:20.348Z,8.97
2019-06-01T04:29:46.382Z,8.33
2019-06-01T04:32:12.878Z,7.60
2019-06-01T04:34:38.944Z,7.10
2019-06-01T04:37:05.608Z,6.67
2019-06-01T04:39:31.584Z,6.13
2019-06-01T04:41:57.835Z,7.67
2019-06-01T04:44:23.813Z,6.10
2019-06-01T04:46:50.329Z,6.20
2019-06-01T04:49:16.313Z,7.33
2019-06-01T04:51:42.320Z,8.10
2019-06-01T04:54:08.800Z,6.87
2019-06-01T04:56:35.384Z,8.67
2019-06-01T04:59:05.003Z,6.53
2019-06-01T05:01:31.129Z,6.73
2019-06-01T05:03:57.108Z,7.27
2019-06-01T05:06:23.725Z,7.20
2019-06-01T05:08:50.084Z,8.00
2019-06-01T05:11:16.073Z,6.70
2019-06-01T05:13:42.580Z,8.57
2019-06-01T05:16:09.929Z,7.47
2019-06-01T05:18:36.508Z,7.80
2019-06-01T05:21:02.649Z,6.97
2019-06-01T05:23:28.724Z,8.40
2019-06-01T05:25:54.692Z,7.77
2019-06-01T05:28:21.223Z,7.57
2019-06-01T05:30:47.537Z,8.30
2019-06-01T05:33:31.022Z,8.00
2019-06-01T05:35:42.393Z,7.80
2019-06-01T05:38:08.369Z,8.33
2019-06-01T05:40:34.622Z,7.13
2019-06-01T05:43:00.725Z,8.57
2019-06-01T05:45:26.714Z,8.73
2019-06-01T05:47:52.858Z,9.47
2019-06-01T05:50:19.172Z,9.53
2019-06-01T05:52:45.264Z,8.90
2019-06-01T05:55:12.838Z,10.53
2019-06-01T05:57:39.040Z,8.53
2019-06-01T06:00:08.941Z,9.73
2019-06-01T06:02:35.641Z,9.87
2019-06-01T06:05:02.366Z,8.90
2019-06-01T06:07:28.376Z,9.63
2019-06-01T06:09:54.358Z,9.43
2019-06-01T06:12:21.625Z,8.50
2019-06-01T06:14:47.783Z,9.83
2019-06-01T06:17:17.363Z,9.27
2019-06-01T06:19:43.091Z,9.10
2019-06-01T06:22:09.110Z,9.67
2019-06-01T06:24:35.096Z,9.10
2019-06-01T06:27:01.205Z,8.77
2019-06-01T06:29:27.206Z,8.43
2019-06-01T06:31:53.209Z,8.87
2019-06-01T06:34:19.691Z,9.40
2019-06-01T06:36:45.859Z,9.00
2019-06-01T06:39:11.848Z,11.00
2019-06-01T06:41:37.862Z,9.33
2019-06-01T06:44:03.976Z,8.80
2019-06-01T06:46:30.124Z,9.33
2019-06-01T06:48:56.212Z,9.80
2019-06-01T06:51:23.310Z,10.70
2019-06-01T06:53:49.420Z,8.93
2019-06-01T06:56:15.713Z,9.97
2019-06-01T06:58:41.855Z,11.17
2019-06-01T07:01:11.812Z,11.60
2019-06-01T07:03:35.795Z,12.07
2019-06-01T07:06:01.802Z,12.03
2019-06-01T07:08:28.065Z,11.20
2019-06-01T07:10:54.156Z,11.87
2019-06-01T07:13:21.229Z,11.63
2019-06-01T07:15:47.408Z,10.60
2019-06-01T07:18:13.563Z,12.43
2019-06-01T07:20:39.555Z,12.07
2019-06-01T07:23:05.603Z,12.97
2019-06-01T07:25:32.925Z,11.93
2019-06-01T07:27:59.159Z,12.87
2019-06-01T07:30:26.264Z,13.33
2019-06-01T07:32:52.497Z,12.47
2019-06-01T07:35:18.676Z,12.80
2019-06-01T07:37:44.652Z,13.27
2019-06-01T07:40:13.720Z,12.23
2019-06-01T07:42:38.553Z,12.30
2019-06-01T07:45:05.461Z,11.83
2019-06-01T07:47:31.465Z,11.03
2019-06-01T07:49:58.049Z,11.17
2019-06-01T07:52:24.243Z,11.63
2019-06-01T07:54:50.310Z,8.60
2019-06-01T07:57:16.599Z,10.23
2019-06-01T07:59:42.976Z,10.07
2019-06-01T08:02:09.346Z,10.37
2019-06-01T08:04:52.830Z,10.03
2019-06-01T08:07:03.952Z,10.80
2019-06-01T08:09:30.061Z,10.23
2019-06-01T08:11:57.317Z,10.07
2019-06-01T08:14:24.515Z,11.30
2019-06-01T08:16:50.665Z,9.30
2019-06-01T08:19:17.029Z,10.73
2019-06-01T08:21:43.553Z,11.40
2019-06-01T08:24:12.047Z,10.80
2019-06-01T08:26:38.369Z,11.30
2019-06-01T08:29:04.336Z,9.50
2019-06-01T08:31:31.858Z,10.43
2019-06-01T08:33:58.672Z,10.60
2019-06-01T08:36:25.231Z,9.93
2019-06-01T08:38:51.871Z,10.20
2019-06-01T08:41:17.842Z,11.30
2019-06-01T08:43:43.921Z,11.10
2019-06-01T08:46:10.004Z,10.73
2019-06-01T08:48:36.194Z,10.90
2019-06-01T08:51:02.475Z,12.77
2019-06-01T08:53:28.600Z,12.43
2019-06-01T08:55:54.625Z,14.80
2019-06-01T08:58:20.698Z,14.07
2019-06-01T09:00:46.781Z,13.13
2019-06-01T09:03:12.813Z,14.70
2019-06-01T09:05:38.887Z,14.20
2019-06-01T09:08:05.135Z,14.83
2019-06-01T09:10:31.519Z,13.90
2019-06-01T09:12:57.912Z,12.60
2019-06-01T09:15:25.571Z,13.50
2019-06-01T09:17:51.960Z,13.30
2019-06-01T09:20:18.227Z,12.63
2019-06-01T09:22:47.914Z,14.23
2019-06-01T09:25:12.525Z,13.53
2019-06-01T09:27:38.533Z,13.70
2019-06-01T09:30:05.621Z,14.47
2019-06-01T09:32:32.252Z,15.37
2019-06-01T09:34:58.374Z,12.87
2019-06-01T09:37:24.391Z,15.70
2019-06-01T09:39:50.406Z,14.50
2019-06-01T09:42:16.443Z,14.67
2019-06-01T09:44:42.553Z,12.40
2019-06-01T09:47:08.560Z,14.17
2019-06-01T09:49:35.718Z,13.77
2019-06-01T09:52:02.131Z,13.00
2019-06-01T09:54:29.455Z,13.07
2019-06-01T09:56:56.278Z,12.97
2019-06-01T09:59:22.408Z,15.20
2019-06-01T10:01:48.511Z,14.60
2019-06-01T10:04:14.630Z,14.87
2019-06-01T10:06:40.650Z,13.73
2019-06-01T10:09:07.685Z,11.90
2019-06-01T10:11:34.290Z,13.47
2019-06-01T10:14:01.104Z,11.60
2019-06-01T10:16:27.232Z,11.70
2019-06-01T10:18:53.253Z,11.40
2019-06-01T10:21:19.238Z,11.93
2019-06-01T10:23:49.048Z,10.80
2019-06-01T10:26:13.241Z,12.80
2019-06-01T10:28:39.802Z,10.70
2019-06-01T10:31:05.956Z,11.93
2019-06-01T10:33:32.672Z,11.20
2019-06-01T10:35:58.754Z,10.00
2019-06-01T10:38:24.778Z,9.70
2019-06-01T10:40:50.768Z,10.40
2019-06-01T10:43:16.848Z,10.90
2019-06-01T10:45:42.870Z,10.07
2019-06-01T10:48:08.841Z,11.90
2019-06-01T10:50:35.239Z,11.10
2019-06-01T10:53:02.753Z,10.33
2019-06-01T10:55:28.740Z,9.30
2019-06-01T10:57:54.753Z,10.80
2019-06-01T11:00:37.109Z,9.20
2019-06-01T11:02:49.084Z,8.83
2019-06-01T11:05:15.080Z,9.53
2019-06-01T11:07:41.144Z,10.63
2019-06-01T11:10:07.913Z,10.80
2019-06-01T11:12:34.933Z,9.53
2019-06-01T11:15:01.131Z,11.47
2019-06-01T11:17:27.117Z,9.80
2019-06-01T11:19:53.189Z,9.03
2019-06-01T11:22:19.205Z,9.03
2019-06-01T11:24:45.169Z,8.77
2019-06-01T11:27:11.184Z,8.17
2019-06-01T11:29:42.894Z,7.60
2019-06-01T11:32:05.214Z,9.33
2019-06-01T11:34:31.591Z,8.33
2019-06-01T11:37:05.133Z,7.80
2019-06-01T11:39:25.456Z,8.00
2019-06-01T11:41:51.529Z,8.23
2019-06-01T11:44:17.627Z,8.20
2019-06-01T11:46:44.987Z,7.30
2019-06-01T11:49:11.285Z,8.10
2019-06-01T11:51:37.292Z,7.70
2019-06-01T11:54:03.387Z,6.80
2019-06-01T11:56:29.355Z,7.27
2019-06-01T11:58:55.363Z,8.77
2019-06-01T12:01:21.604Z,7.30
2019-06-01T12:03:47.641Z,6.10
2019-06-01T12:06:13.619Z,7.23
2019-06-01T12:08:40.028Z,7.50
2019-06-01T12:11:06.073Z,7.37
2019-06-01T12:13:32.105Z,6.50
2019-06-01T12:15:58.218Z,8.07
2019-06-01T12:18:24.209Z,6.40
2019-06-01T12:20:50.235Z,5.90
2019-06-01T12:23:16.276Z,6.67
2019-06-01T12:25:42.254Z,6.30
2019-06-01T12:28:08.263Z,6.20
2019-06-01T12:30:34.302Z,6.47
2019-06-01T12:33:00.296Z,6.83
2019-06-01T12:35:26.308Z,6.73
2019-06-01T12:38:05.508Z,6.37
2019-06-01T12:40:20.452Z,5.67
2019-06-01T12:42:47.654Z,6.57
2019-06-01T12:45:22.667Z,6.50
2019-06-01T12:47:52.373Z,5.50
2019-06-01T12:50:15.158Z,6.73
2019-06-01T12:52:42.250Z,6.27
2019-06-01T12:55:08.437Z,6.70
2019-06-01T12:57:34.465Z,6.73
2019-06-01T13:00:00.909Z,6.60
2019-06-01T13:02:26.890Z,6.43
2019-06-01T13:04:53.166Z,7.10
2019-06-01T13:07:19.397Z,5.50
2019-06-01T13:09:46.136Z,4.93
2019-06-01T13:12:12.299Z,5.83
2019-06-01T13:14:38.312Z,5.17
2019-06-01T13:17:07.749Z,6.50
2019-06-01T13:19:32.316Z,6.37
2019-06-01T13:21:58.289Z,6.60
2019-06-01T13:24:24.318Z,7.50
2019-06-01T13:26:50.297Z,7.57
2019-06-01T13:29:16.320Z,8.87
2019-06-01T13:31:42.328Z,7.20
2019-06-01T13:34:08.397Z,7.10
2019-06-01T13:36:34.469Z,7.33
2019-06-01T13:39:00.469Z,7.67
2019-06-01T13:41:26.469Z,8.03
2019-06-01T13:43:53.456Z,7.97
2019-06-01T13:46:19.589Z,7.30
2019-06-01T13:48:45.623Z,8.93
2019-06-01T13:51:11.672Z,7.87
2019-06-01T13:53:37.709Z,7.27
2019-06-01T13:56:03.694Z,7.20
2019-06-01T13:58:29.691Z,6.70
2019-06-01T14:00:55.675Z,7.30
2019-06-01T14:03:21.709Z,7.63
2019-06-01T14:05:48.783Z,6.53
2019-06-01T14:08:28.017Z,5.70
2019-06-01T14:10:42.802Z,7.07
2019-06-01T14:13:08.873Z,5.30
2019-06-01T14:15:34.884Z,6.27
2019-06-01T14:18:00.912Z,5.50
2019-06-01T14:20:26.928Z,5.73
2019-06-01T14:22:54.043Z,4.83
2019-06-01T14:25:20.250Z,4.60
2019-06-01T14:27:46.270Z,4.77
2019-06-01T14:30:14.984Z,4.80
2019-06-01T14:32:41.100Z,3.80
2019-06-01T14:35:07.504Z,3.80
2019-06-01T14:37:33.523Z,3.90
2019-06-01T14:39:59.535Z,3.80
2019-06-01T14:42:25.509Z,4.00
2019-06-01T14:44:51.521Z,4.53
2019-06-01T14:47:18.729Z,3.27
2019-06-01T14:49:45.258Z,4.40
2019-06-01T14:52:11.273Z,3.57
2019-06-01T14:54:37.248Z,3.30
2019-06-01T14:57:03.724Z,3.30
2019-06-01T14:59:29.829Z,2.73
2019-06-01T15:01:56.272Z,4.50
2019-06-01T15:04:22.403Z,4.70
2019-06-01T15:06:48.453Z,5.93
2019-06-01T15:09:18.881Z,5.00
2019-06-01T15:11:42.368Z,5.97
2019-06-01T15:14:08.396Z,5.67
2019-06-01T15:16:34.377Z,5.10
2019-06-01T15:19:00.388Z,5.80
2019-06-01T15:21:26.364Z,4.90
2019-06-01T15:23:52.332Z,4.83
2019-06-01T15:26:18.366Z,5.73
2019-06-01T15:28:44.392Z,5.00
2019-06-01T15:31:10.390Z,4.97
2019-06-01T15:33:36.641Z,5.30
2019-06-01T15:36:03.023Z,5.80
2019-06-01T15:38:29.341Z,5.43
2019-06-01T15:40:56.131Z,5.80
2019-06-01T15:43:22.276Z,5.10
2019-06-01T15:45:48.263Z,5.97
2019-06-01T15:48:14.288Z,5.17
2019-06-01T15:50:40.257Z,5.13
2019-06-01T15:53:06.249Z,5.20
2019-06-01T15:55:32.304Z,6.40
2019-06-01T15:57:58.521Z,5.93
2019-06-01T16:00:24.797Z,6.87
2019-06-01T16:02:50.802Z,7.00
2019-06-01T16:05:16.799Z,7.20
2019-06-01T16:07:43.033Z,6.10
2019-06-01T16:10:09.429Z,6.23
2019-06-01T16:12:35.632Z,7.50
2019-06-01T16:15:02.207Z,6.57
2019-06-01T16:17:28.401Z,7.43
2019-06-01T16:19:55.775Z,6.37
2019-06-01T16:22:21.941Z,6.37
2019-06-01T16:24:47.932Z,6.50
2019-06-01T16:27:13.956Z,6.90
2019-06-01T16:29:39.942Z,6.70
2019-06-01T16:32:06.100Z,7.00
2019-06-01T16:34:32.205Z,7.33
2019-06-01T16:36:58.887Z,6.33
2019-06-01T16:39:25.065Z,7.00
2019-06-01T16:41:51.125Z,7.07
2019-06-01T16:44:19.708Z,6.20
2019-06-01T16:46:44.997Z,6.10
2019-06-01T16:49:11.002Z,7.40
2019-06-01T16:51:56.417Z,8.03
2019-06-01T16:54:23.124Z,8.50
2019-06-01T16:56:49.181Z,6.73
2019-06-01T16:59:15.260Z,6.70
2019-06-01T17:01:41.372Z,6.40
2019-06-01T17:04:07.403Z,6.07
2019-06-01T17:06:36.483Z,6.37
2019-06-01T17:09:09.057Z,6.70
2019-06-01T17:11:35.212Z,6.57
2019-06-01T17:14:01.436Z,5.70
2019-06-01T17:16:27.545Z,6.13
2019-06-01T17:18:53.627Z,6.00
2019-06-01T17:21:19.628Z,6.03
2019-06-01T17:23:45.673Z,6.27
2019-06-01T17:26:11.682Z,5.70
2019-06-01T17:28:37.764Z,6.27
2019-06-01T17:31:04.288Z,5.90
2019-06-01T17:33:30.391Z,5.43
2019-06-01T17:35:56.525Z,5.60
2019-06-01T17:38:22.526Z,4.93
2019-06-01T17:40:48.558Z,4.60
2019-06-01T17:43:14.714Z,4.80
2019-06-01T17:45:40.758Z,5.47
2019-06-01T17:48:23.470Z,4.80
2019-06-01T17:50:34.887Z,4.40
2019-06-01T17:53:00.908Z,4.63
2019-06-01T17:55:29.524Z,5.17
2019-06-01T17:57:55.621Z,5.60
2019-06-01T18:00:21.952Z,4.60
2019-06-01T18:02:48.339Z,4.57
2019-06-01T18:05:14.427Z,5.83
2019-06-01T18:07:40.608Z,5.00
2019-06-01T18:10:08.115Z,4.77
2019-06-01T18:12:34.691Z,5.53
2019-06-01T18:15:02.182Z,4.23
2019-06-01T18:17:28.623Z,4.67
2019-06-01T18:19:55.593Z,4.23
2019-06-01T18:22:21.632Z,4.07
2019-06-01T18:24:47.741Z,5.50
2019-06-01T18:27:13.857Z,4.53
2019-06-01T18:29:48.029Z,4.57
2019-06-01T18:32:08.067Z,4.40
2019-06-01T18:34:37.545Z,4.93
2019-06-01T18:37:03.604Z,4.47
2019-06-01T18:39:30.386Z,5.60
2019-06-01T18:41:57.008Z,3.83
2019-06-01T18:44:23.280Z,4.43
2019-06-01T18:46:49.751Z,4.40
2019-06-01T18:49:18.075Z,4.00
2019-06-01T18:51:44.550Z,3.87
2019-06-01T18:54:11.039Z,3.53
2019-06-01T18:56:37.155Z,4.87
2019-06-01T18:59:06.959Z,3.80
2019-06-01T19:01:34.261Z,3.87
2019-06-01T19:04:01.408Z,3.90
2019-06-01T19:06:27.422Z,3.60
2019-06-01T19:08:54.521Z,4.77
2019-06-01T19:11:32.894Z,4.17
2019-06-01T19:13:49.271Z,3.90
2019-06-01T19:16:16.845Z,3.60
2019-06-01T19:18:42.876Z,2.97
2019-06-01T19:21:10.595Z,3.03
2019-06-01T19:23:37.177Z,4.10
2019-06-01T19:26:03.227Z,3.70
2019-06-01T19:28:29.661Z,3.80
2019-06-01T19:30:56.461Z,3.80
2019-06-01T19:33:22.575Z,4.13
2019-06-01T19:35:50.671Z,3.37
2019-06-01T19:38:18.681Z,3.20
2019-06-01T19:40:44.906Z,3.10
2019-06-01T19:43:11.512Z,3.30
2019-06-01T19:45:38.957Z,3.03
2019-06-01T19:48:08.024Z,3.10
2019-06-01T19:50:35.787Z,3.13
2019-06-01T19:53:01.834Z,3.97
2019-06-01T19:55:27.946Z,3.67
2019-06-01T19:57:54.091Z,4.23
2019-06-01T20:00:20.210Z,3.27
2019-06-01T20:02:47.328Z,3.60
2019-06-01T20:05:14.585Z,3.87
2019-06-01T20:07:41.460Z,4.10
2019-06-01T20:10:07.744Z,3.97
2019-06-01T20:12:34.529Z,3.80
2019-06-01T20:15:06.636Z,4.27
2019-06-01T20:17:32.677Z,4.00
2019-06-01T20:19:58.788Z,4.10
2019-06-01T20:22:24.813Z,3.50
2019-06-01T20:24:50.952Z,3.80
2019-06-01T20:27:17.486Z,3.33
2019-06-01T20:29:43.673Z,4.30
2019-06-01T20:32:09.705Z,3.20
2019-06-01T20:34:35.695Z,3.43
2019-06-01T20:37:01.713Z,3.30
2019-06-01T20:39:27.746Z,3.87
2019-06-01T20:41:53.799Z,3.20
2019-06-01T20:44:20.954Z,3.93
2019-06-01T20:46:47.139Z,3.27
2019-06-01T20:49:14.401Z,4.83
2019-06-01T20:51:40.637Z,3.57
2019-06-01T20:54:06.649Z,3.37
2019-06-01T20:56:32.725Z,3.97
2019-06-01T20:58:58.771Z,4.13
2019-06-01T21:01:24.797Z,4.70
2019-06-01T21:03:51.204Z,4.37
2019-06-01T21:06:18.542Z,3.90
2019-06-01T21:08:44.933Z,5.50
2019-06-01T21:11:11.098Z,4.70
2019-06-01T21:13:37.229Z,3.90
2019-06-01T21:16:03.340Z,3.87
2019-06-01T21:18:29.393Z,4.30
2019-06-01T21:20:55.500Z,4.37
2019-06-01T21:23:22.543Z,4.80
2019-06-01T21:25:49.165Z,5.90
2019-06-01T21:28:17.681Z,5.20
2019-06-01T21:30:43.254Z,3.93
2019-06-01T21:33:09.225Z,4.07
2019-06-01T21:35:35.327Z,4.40
2019-06-01T21:38:01.399Z,5.03
2019-06-01T21:40:27.535Z,4.70
2019-06-01T21:43:02.995Z,5.47
2019-06-01T21:45:21.805Z,4.33
2019-06-01T21:47:48.041Z,5.37
2019-06-01T21:50:16.536Z,6.30
2019-06-01T21:52:44.341Z,3.87
2019-06-01T21:55:11.458Z,4.30
2019-06-01T21:57:37.531Z,4.60
2019-06-01T22:00:07.223Z,4.40
2019-06-01T22:02:33.394Z,4.70
2019-06-01T22:04:59.598Z,5.50
2019-06-01T22:07:25.583Z,5.30
2019-06-01T22:09:51.673Z,5.30
2019-06-01T22:12:17.762Z,5.20
2019-06-01T22:14:43.820Z,4.83
2019-06-01T22:17:09.813Z,4.80
2019-06-01T22:19:35.877Z,5.37
2019-06-01T22:22:01.918Z,5.90
2019-06-01T22:24:28.336Z,5.13
2019-06-01T22:26:54.430Z,5.70
2019-06-01T22:29:20.471Z,6.80
2019-06-01T22:31:46.493Z,6.13
2019-06-01T22:34:12.518Z,6.73
2019-06-01T22:36:38.619Z,7.10
2019-06-01T22:39:06.530Z,5.53
2019-06-01T22:41:32.767Z,6.73
2019-06-01T22:43:58.815Z,5.90
2019-06-01T22:46:24.884Z,6.50
2019-06-01T22:48:50.928Z,5.97
2019-06-01T22:51:16.908Z,6.80
2019-06-01T22:53:42.924Z,6.50
2019-06-01T22:56:08.941Z,5.60
2019-06-01T22:58:35.056Z,6.10
2019-06-01T23:01:01.130Z,6.90
2019-06-01T23:03:28.102Z,6.07
2019-06-01T23:05:54.214Z,6.90
2019-06-01T23:08:20.922Z,6.30
2019-06-01T23:10:47.073Z,6.87
2019-06-01T23:13:13.235Z,7.07
2019-06-01T23:15:39.306Z,8.13
2019-06-01T23:18:05.316Z,7.60
2019-06-01T23:20:32.234Z,7.60
2019-06-01T23:22:58.346Z,7.33
2019-06-01T23:25:24.519Z,9.07
2019-06-01T23:27:50.666Z,7.93
2019-06-01T23:30:16.754Z,7.87
2019-06-01T23:32:42.932Z,8.10
2019-06-01T23:35:08.935Z,9.60
2019-06-01T23:37:35.083Z,9.80
2019-06-01T23:40:01.164Z,7.57
2019-06-01T23:42:27.168Z,8.03
2019-06-01T23:44:53.180Z,7.07
2019-06-01T23:47:19.272Z,7.63
2019-06-01T23:49:45.248Z,6.50
2019-06-01T23:52:11.328Z,7.70
2019-06-01T23:54:37.364Z,6.90
2019-06-01T23:57:03.382Z,7.97
2019-06-01T23:59:30.800Z,6.90
